Time;durP1;ratioP1;P1;durP2;ratioP2;P2;SDS_P1;SDS_P2;PMS_P1;PMS_P2;Temp;Humidity;BMP_temperature;BMP_pressure;BME280_temperature;BME280_humidity;BME280_pressure;Samples;Min_cycle;Max_cycle;Signal;HPM_P1;HPM_P2
2022/04/07 00:01:33;;;;;;;12.55;3.45;;;13.10;58.80;;;;;;5043223;28;20047;-74
2022/04/07 00:03:59;;;;;;;14.60;3.78;;;13.10;58.90;;;;;;5031025;28;20044;-74
2022/04/07 00:06:24;;;;;;;17.83;4.05;;;13.10;58.90;;;;;;5042746;28;20400;-74
2022/04/07 00:08:50;;;;;;;13.75;4.25;;;13.00;58.80;;;;;;5043649;28;20025;-74
2022/04/07 00:11:16;;;;;;;13.82;3.15;;;13.10;59.10;;;;;;5024414;28;20048;-74
2022/04/07 00:13:42;;;;;;;11.38;3.60;;;13.00;58.90;;;;;;5044315;28;20178;-74
2022/04/07 00:16:08;;;;;;;14.15;3.70;;;13.00;59.00;;;;;;5043763;28;20033;-74
2022/04/07 00:18:34;;;;;;;14.52;2.90;;;13.00;59.10;;;;;;5039235;28;20045;-73
2022/04/07 00:21:04;;;;;;;16.20;3.35;;;13.00;59.10;;;;;;5042196;28;20033;-74
2022/04/07 00:23:30;;;;;;;17.02;3.83;;;13.00;59.20;;;;;;5045296;28;20029;-73
2022/04/07 00:25:56;;;;;;;14.35;2.88;;;13.00;59.30;;;;;;5045314;28;20032;-74
2022/04/07 00:28:22;;;;;;;15.18;3.78;;;13.00;59.40;;;;;;5040706;28;20361;-74
2022/04/07 00:30:49;;;;;;;19.92;5.38;;;12.90;59.20;;;;;;5042774;28;20029;-74
2022/04/07 00:33:15;;;;;;;17.92;4.78;;;12.90;59.30;;;;;;5043762;28;20135;-74
2022/04/07 00:35:41;;;;;;;17.63;3.53;;;12.90;59.40;;;;;;5043236;28;20033;-74
2022/04/07 00:38:07;;;;;;;15.48;3.22;;;12.90;59.40;;;;;;5043245;28;20041;-74
2022/04/07 00:40:33;;;;;;;12.85;2.72;;;12.90;59.40;;;;;;5047214;28;20404;-74
2022/04/07 00:42:59;;;;;;;12.30;2.88;;;12.90;59.50;;;;;;5028835;28;20484;-73
2022/04/07 00:45:24;;;;;;;13.27;3.15;;;12.90;59.50;;;;;;5046246;28;20036;-74
2022/04/07 00:47:51;;;;;;;11.93;3.15;;;12.80;59.40;;;;;;5045861;28;20033;-74
2022/04/07 00:50:19;;;;;;;9.52;3.75;;;12.80;59.40;;;;;;5045500;28;20207;-74
2022/04/07 00:52:51;;;;;;;16.08;3.35;;;12.80;59.50;;;;;;5050161;28;20055;-73
2022/04/07 00:55:19;;;;;;;10.82;3.65;;;12.80;59.60;;;;;;5048950;28;20548;-74
2022/04/07 00:57:46;;;;;;;12.90;2.70;;;12.70;59.40;;;;;;5044462;28;20380;-74
2022/04/07 01:00:14;;;;;;;16.83;2.95;;;12.70;59.50;;;;;;5044946;28;20033;-74
2022/04/07 01:02:39;;;;;;;10.75;3.03;;;12.60;59.40;;;;;;5047502;28;20540;-74
2022/04/07 01:05:08;;;;;;;11.40;2.78;;;12.60;59.40;;;;;;5046388;28;20053;-74
2022/04/07 01:07:37;;;;;;;10.15;2.55;;;12.70;59.60;;;;;;5044767;28;20326;-74
2022/04/07 01:10:05;;;;;;;14.15;3.22;;;12.60;59.40;;;;;;5032013;28;20036;-74
2022/04/07 01:12:30;;;;;;;11.25;2.78;;;12.60;59.40;;;;;;5046170;28;20043;-74
2022/04/07 01:15:01;;;;;;;12.10;2.55;;;12.60;59.40;;;;;;5044383;28;20053;-74
2022/04/07 01:17:28;;;;;;;8.90;2.13;;;12.60;59.40;;;;;;5045985;28;20083;-73
2022/04/07 01:19:54;;;;;;;7.70;2.72;;;12.60;59.40;;;;;;5048232;28;20025;-74
2022/04/07 01:22:21;;;;;;;10.13;2.28;;;12.50;59.20;;;;;;5044111;28;20394;-73
2022/04/07 01:24:47;;;;;;;11.18;1.98;;;12.50;59.20;;;;;;5045688;28;20025;-74
2022/04/07 01:27:14;;;;;;;9.00;3.40;;;12.40;59.00;;;;;;5025397;28;20052;-73
2022/04/07 01:29:40;;;;;;;7.80;1.98;;;12.40;59.00;;;;;;5046100;28;20513;-74
2022/04/07 01:32:11;;;;;;;9.10;2.00;;;12.40;59.00;;;;;;5044048;28;20116;-74
2022/04/07 01:34:39;;;;;;;11.75;2.00;;;12.40;59.00;;;;;;5050902;28;20033;-74
2022/04/07 01:37:06;;;;;;;15.13;3.95;;;12.40;59.00;;;;;;5054412;28;20500;-74
2022/04/07 01:39:32;;;;;;;10.65;2.85;;;12.40;59.00;;;;;;5046904;28;20052;-73
2022/04/07 01:41:58;;;;;;;10.13;2.15;;;12.30;58.90;;;;;;5044987;28;20387;-74
2022/04/07 01:44:25;;;;;;;7.60;2.80;;;12.30;58.90;;;;;;5047239;28;20029;-73
2022/04/07 01:46:51;;;;;;;10.00;2.75;;;12.30;58.90;;;;;;5052467;28;20040;-73
2022/04/07 01:49:20;;;;;;;14.55;2.40;;;12.30;58.90;;;;;;5050457;28;20029;-74
2022/04/07 01:51:46;;;;;;;11.88;3.15;;;12.30;59.00;;;;;;5049178;28;20037;-74
2022/04/07 01:54:14;;;;;;;12.70;2.88;;;12.20;58.80;;;;;;5049790;28;20041;-73
2022/04/07 01:56:42;;;;;;;14.70;4.43;;;12.20;58.80;;;;;;5049558;28;20555;-73
2022/04/07 01:59:09;;;;;;;12.68;3.63;;;12.20;58.90;;;;;;5047853;28;20412;-74
2022/04/07 02:01:35;;;;;;;17.42;2.92;;;12.20;58.90;;;;;;5030865;28;20100;-74
2022/04/07 02:04:04;;;;;;;12.57;3.55;;;12.20;58.90;;;;;;5049418;28;20033;-74
2022/04/07 02:06:30;;;;;;;10.98;2.80;;;12.20;59.00;;;;;;5048637;28;20170;-73
2022/04/07 02:08:57;;;;;;;14.27;2.90;;;12.20;59.00;;;;;;5048967;28;20029;-73
2022/04/07 02:11:22;;;;;;;17.88;4.30;;;12.20;59.00;;;;;;5048946;28;20036;-74
2022/04/07 02:13:49;;;;;;;14.00;3.45;;;12.20;59.10;;;;;;5049181;28;20049;-73
2022/04/07 02:16:15;;;;;;;17.58;4.05;;;12.20;59.10;;;;;;5032737;28;20033;-74
2022/04/07 02:18:42;;;;;;;19.67;4.68;;;12.20;59.10;;;;;;5048762;28;20040;-74
2022/04/07 02:21:08;;;;;;;16.77;3.65;;;12.20;59.10;;;;;;5049557;28;20052;-74
2022/04/07 02:23:41;;;;;;;18.70;4.25;;;12.20;59.10;;;;;;5048444;28;20025;-74
2022/04/07 02:26:11;;;;;;;15.32;3.20;;;12.20;59.10;;;;;;5040648;28;20571;-74
2022/04/07 02:28:38;;;;;;;17.92;3.47;;;12.20;59.20;;;;;;5048857;28;20508;-74
2022/04/07 02:31:04;;;;;;;14.98;3.20;;;12.20;59.20;;;;;;5048031;28;20371;-74
2022/04/07 02:33:30;;;;;;;13.68;3.40;;;12.20;59.20;;;;;;5048798;28;20436;-74
2022/04/07 02:35:56;;;;;;;14.23;4.72;;;12.20;59.20;;;;;;5048973;28;20086;-74
2022/04/07 02:38:22;;;;;;;17.40;3.78;;;12.20;59.20;;;;;;5047179;28;20040;-74
2022/04/07 02:40:48;;;;;;;17.15;3.45;;;12.20;59.20;;;;;;5040196;28;20502;-74
2022/04/07 02:43:13;;;;;;;13.65;3.65;;;12.20;59.20;;;;;;5045944;28;20561;-74
2022/04/07 02:45:39;;;;;;;18.42;4.05;;;12.20;59.20;;;;;;5048042;28;20410;-74
2022/04/07 02:48:05;;;;;;;14.95;3.03;;;12.20;59.20;;;;;;5047184;28;20025;-74
2022/04/07 02:50:31;;;;;;;13.75;4.53;;;12.20;59.30;;;;;;5049329;28;20056;-73
2022/04/07 02:52:57;;;;;;;20.27;3.60;;;12.20;59.30;;;;;;5048502;28;20067;-74
2022/04/07 02:55:24;;;;;;;12.13;3.72;;;12.20;59.30;;;;;;5048417;28;20033;-74
2022/04/07 02:57:50;;;;;;;13.65;3.63;;;12.20;59.30;;;;;;5037875;28;20551;-74
2022/04/07 03:00:16;;;;;;;14.98;3.00;;;12.20;59.30;;;;;;5048648;28;20033;-74
2022/04/07 03:02:42;;;;;;;16.58;4.03;;;12.20;59.30;;;;;;5046895;28;20036;-74
2022/04/07 03:05:08;;;;;;;16.33;3.08;;;12.20;59.30;;;;;;5048301;28;20037;-73
2022/04/07 03:07:35;;;;;;;12.73;3.03;;;12.20;59.30;;;;;;5047843;28;20067;-74
2022/04/07 03:10:01;;;;;;;13.25;3.25;;;12.10;59.20;;;;;;5043914;28;20090;-73
2022/04/07 03:12:27;;;;;;;15.88;3.10;;;12.10;59.10;;;;;;5048012;28;20473;-73
2022/04/07 03:14:53;;;;;;;15.15;4.13;;;12.10;59.10;;;;;;5047947;28;20037;-73
2022/04/07 03:17:19;;;;;;;9.77;2.85;;;12.10;59.10;;;;;;5046105;28;20029;-74
2022/04/07 03:19:45;;;;;;;16.02;3.20;;;12.10;59.10;;;;;;5048269;28;20305;-73
2022/04/07 03:22:12;;;;;;;12.18;2.75;;;12.10;59.10;;;;;;5047335;28;20198;-74
2022/04/07 03:24:38;;;;;;;13.02;3.22;;;12.10;59.10;;;;;;5046910;28;20040;-73
2022/04/07 03:27:07;;;;;;;13.27;2.78;;;12.10;59.00;;;;;;5047032;28;20048;-73
2022/04/07 03:29:34;;;;;;;9.70;2.58;;;12.10;59.10;;;;;;5033209;28;20069;-73
2022/04/07 03:32:00;;;;;;;12.02;2.90;;;12.10;59.00;;;;;;5046180;28;20025;-73
2022/04/07 03:34:26;;;;;;;14.20;2.97;;;12.10;59.00;;;;;;5047543;28;20039;-73
2022/04/07 03:36:51;;;;;;;18.42;3.13;;;12.10;59.00;;;;;;5045506;28;20048;-73
2022/04/07 03:39:17;;;;;;;14.02;3.20;;;12.10;58.90;;;;;;5046728;28;20471;-73
2022/04/07 03:41:43;;;;;;;8.38;2.10;;;12.00;58.80;;;;;;5032392;28;20476;-74
2022/04/07 03:44:10;;;;;;;16.10;3.50;;;12.00;58.70;;;;;;5046174;28;20025;-74
2022/04/07 03:46:39;;;;;;;15.00;3.33;;;12.00;58.70;;;;;;5046878;28;20086;-73
2022/04/07 03:49:05;;;;;;;15.57;3.33;;;12.00;58.80;;;;;;5047358;28;20059;-73
2022/04/07 03:51:31;;;;;;;12.07;2.10;;;11.90;58.60;;;;;;5047593;28;20083;-73
2022/04/07 03:53:57;;;;;;;12.82;2.50;;;11.90;58.60;;;;;;5047397;28;20118;-74
2022/04/07 03:56:23;;;;;;;9.50;2.47;;;11.90;58.60;;;;;;5046878;28;20174;-73
2022/04/07 03:58:49;;;;;;;12.65;3.25;;;11.90;58.70;;;;;;5032963;28;20048;-73
2022/04/07 04:01:15;;;;;;;8.05;2.58;;;11.90;58.70;;;;;;5046463;28;20055;-74
2022/04/07 04:03:41;;;;;;;12.68;3.42;;;11.80;58.50;;;;;;5047021;28;20032;-73
2022/04/07 04:06:07;;;;;;;8.10;2.00;;;11.80;58.60;;;;;;5047518;28;20403;-73
2022/04/07 04:08:32;;;;;;;11.68;1.92;;;11.80;58.50;;;;;;5042443;28;20028;-74
2022/04/07 04:10:58;;;;;;;11.20;2.25;;;11.80;58.50;;;;;;5047403;28;20048;-73
2022/04/07 04:13:26;;;;;;;10.90;2.05;;;11.80;58.60;;;;;;5042815;28;20431;-73
2022/04/07 04:15:52;;;;;;;8.57;2.83;;;11.70;58.30;;;;;;5047167;28;20478;-74
2022/04/07 04:18:17;;;;;;;9.38;2.15;;;11.70;58.30;;;;;;5045919;28;20037;-74
2022/04/07 04:20:43;;;;;;;10.77;4.03;;;11.70;58.30;;;;;;5047883;28;20551;-74
2022/04/07 04:23:09;;;;;;;11.60;3.20;;;11.80;58.50;;;;;;5050732;28;20032;-74
2022/04/07 04:25:35;;;;;;;10.30;2.10;;;11.70;58.30;;;;;;5050638;28;20040;-74
2022/04/07 04:28:01;;;;;;;5.35;1.58;;;11.70;58.30;;;;;;5047121;28;20029;-74
2022/04/07 04:30:27;;;;;;;8.27;2.03;;;11.60;58.20;;;;;;5052530;28;20072;-74
2022/04/07 04:32:52;;;;;;;12.30;2.55;;;11.70;58.40;;;;;;5050138;28;20029;-74
2022/04/07 04:35:18;;;;;;;11.32;2.35;;;11.60;58.20;;;;;;5051045;28;20514;-74
2022/04/07 04:37:44;;;;;;;7.97;2.17;;;11.60;58.10;;;;;;5051906;28;20041;-74
2022/04/07 04:40:10;;;;;;;9.95;2.88;;;11.60;58.10;;;;;;5050504;28;20037;-74
2022/04/07 04:42:40;;;;;;;7.72;2.08;;;11.60;58.20;;;;;;5044703;28;20130;-74
2022/04/07 04:45:07;;;;;;;9.02;1.98;;;11.60;58.30;;;;;;5051828;28;20449;-74
2022/04/07 04:47:33;;;;;;;7.72;2.78;;;11.60;58.30;;;;;;5047290;28;20443;-74
2022/04/07 04:49:59;;;;;;;7.38;1.95;;;11.50;58.10;;;;;;5044745;28;20029;-74
2022/04/07 04:52:25;;;;;;;9.25;2.00;;;11.50;58.10;;;;;;5046875;28;20040;-74
2022/04/07 04:54:51;;;;;;;6.65;3.00;;;11.50;58.10;;;;;;5048380;28;20029;-74
2022/04/07 04:57:17;;;;;;;10.75;2.80;;;11.50;58.20;;;;;;5045055;28;20047;-74
2022/04/07 04:59:42;;;;;;;9.00;1.70;;;11.50;58.20;;;;;;5048262;28;20346;-74
2022/04/07 05:02:09;;;;;;;10.38;1.83;;;11.50;58.20;;;;;;5045603;28;20502;-74
2022/04/07 05:04:36;;;;;;;7.82;1.95;;;11.50;58.20;;;;;;5048140;28;20531;-74
2022/04/07 05:07:03;;;;;;;9.15;2.13;;;11.50;58.20;;;;;;5047773;28;20044;-73
2022/04/07 05:09:29;;;;;;;8.98;2.17;;;11.50;58.20;;;;;;5044639;28;20082;-73
2022/04/07 05:11:55;;;;;;;10.55;2.10;;;11.50;58.20;;;;;;5044072;28;20411;-74
2022/04/07 05:14:20;;;;;;;9.63;2.55;;;11.50;58.20;;;;;;5043194;28;20043;-74
2022/04/07 05:16:47;;;;;;;6.80;1.90;;;11.40;57.90;;;;;;5043830;28;20360;-74
2022/04/07 05:19:12;;;;;;;11.02;2.45;;;11.40;57.90;;;;;;5030139;28;20075;-74
2022/04/07 05:21:39;;;;;;;8.88;2.22;;;11.40;57.90;;;;;;5044264;28;20017;-74
2022/04/07 05:24:05;;;;;;;9.98;2.45;;;11.40;57.90;;;;;;5044776;28;20696;-74
2022/04/07 05:26:31;;;;;;;9.00;2.35;;;11.40;57.90;;;;;;5042257;28;20056;-72
2022/04/07 05:28:56;;;;;;;9.70;2.03;;;11.40;58.00;;;;;;5044493;28;20071;-74
2022/04/07 05:31:22;;;;;;;8.80;1.85;;;11.40;57.90;;;;;;5044050;28;20026;-73
2022/04/07 05:33:48;;;;;;;9.45;2.10;;;11.40;57.90;;;;;;5043282;28;20154;-73
2022/04/07 05:36:14;;;;;;;11.40;2.38;;;11.40;57.90;;;;;;5045101;28;20033;-73
2022/04/07 05:38:40;;;;;;;7.57;2.47;;;11.40;57.90;;;;;;5044647;28;20508;-72
2022/04/07 05:41:06;;;;;;;7.50;2.95;;;11.50;58.10;;;;;;5025489;28;20060;-72
2022/04/07 05:43:31;;;;;;;10.30;2.65;;;11.50;58.00;;;;;;5044301;28;20060;-74
2022/04/07 05:45:57;;;;;;;8.73;2.55;;;11.40;57.80;;;;;;5044440;28;20128;-73
2022/04/07 05:48:23;;;;;;;13.35;3.17;;;11.50;58.00;;;;;;5041652;28;20032;-72
2022/04/07 05:50:49;;;;;;;9.93;2.63;;;11.50;58.00;;;;;;5044994;28;20086;-74
2022/04/07 05:53:15;;;;;;;9.75;2.47;;;11.50;57.90;;;;;;5043970;28;20033;-75
2022/04/07 05:55:41;;;;;;;10.80;2.38;;;11.50;58.10;;;;;;5044569;28;20044;-74
2022/04/07 05:58:08;;;;;;;13.90;3.10;;;11.50;58.20;;;;;;5040902;28;20033;-75
2022/04/07 06:00:37;;;;;;;11.65;3.17;;;11.50;58.20;;;;;;5042860;28;20060;-73
2022/04/07 06:03:03;;;;;;;8.80;2.38;;;11.60;58.30;;;;;;5043050;28;20032;-74
2022/04/07 06:05:29;;;;;;;10.48;2.20;;;11.60;58.20;;;;;;5044004;28;20060;-75
2022/04/07 06:08:03;;;;;;;16.27;2.50;;;11.60;58.10;;;;;;5040386;28;20495;-76
2022/04/07 06:10:29;;;;;;;12.07;2.60;;;11.60;58.10;;;;;;5041952;28;20062;-75
2022/04/07 06:12:55;;;;;;;9.80;2.83;;;11.60;58.00;;;;;;5043467;28;20095;-75
2022/04/07 06:15:21;;;;;;;12.00;3.17;;;11.70;58.10;;;;;;5043206;28;20032;-74
2022/04/07 06:17:48;;;;;;;12.13;2.42;;;11.70;58.10;;;;;;5041935;28;20041;-75
2022/04/07 06:20:14;;;;;;;9.43;2.30;;;11.70;57.90;;;;;;5044327;28;20568;-73
2022/04/07 06:22:42;;;;;;;10.98;2.80;;;11.80;58.10;;;;;;5038319;28;20120;-73
2022/04/07 06:25:08;;;;;;;8.65;2.88;;;11.80;58.00;;;;;;5046220;28;20148;-74
2022/04/07 06:27:39;;;;;;;10.73;2.95;;;11.80;57.90;;;;;;5030688;28;20431;-75
2022/04/07 06:30:06;;;;;;;9.52;2.03;;;11.90;57.90;;;;;;5049417;28;20450;-74
2022/04/07 06:32:33;;;;;;;12.90;3.13;;;11.90;57.80;;;;;;5044581;28;20033;-76
2022/04/07 06:34:59;;;;;;;10.15;2.53;;;11.90;57.60;;;;;;5048302;28;20047;-73
2022/04/07 06:37:25;;;;;;;8.25;1.77;;;12.00;57.70;;;;;;5051536;28;20544;-74
2022/04/07 06:39:57;;;;;;;9.32;2.80;;;12.00;57.50;;;;;;5039342;28;20517;-75
2022/04/07 06:42:23;;;;;;;8.60;2.42;;;12.00;57.40;;;;;;5042597;28;20124;-74
2022/04/07 06:44:51;;;;;;;8.93;3.45;;;12.10;57.50;;;;;;5047784;28;20697;-74
2022/04/07 06:47:16;;;;;;;9.30;1.80;;;12.20;57.70;;;;;;5039673;28;20021;-72
2022/04/07 06:49:42;;;;;;;9.02;1.70;;;12.40;57.80;;;;;;5041822;28;20664;-72
2022/04/07 06:52:08;;;;;;;9.82;2.10;;;12.60;57.60;;;;;;5055036;28;20064;-72
2022/04/07 06:54:34;;;;;;;7.72;2.50;;;12.80;57.40;;;;;;5018113;28;20338;-71
2022/04/07 06:57:00;;;;;;;9.23;2.70;;;12.90;57.10;;;;;;5042966;28;20094;-72
2022/04/07 06:59:26;;;;;;;9.55;1.90;;;13.10;57.20;;;;;;5042660;28;20056;-72
2022/04/07 07:01:51;;;;;;;8.73;2.40;;;13.20;57.00;;;;;;5025985;28;20537;-74
2022/04/07 07:04:17;;;;;;;7.97;2.13;;;13.30;56.80;;;;;;5044484;28;20608;-72
2022/04/07 07:06:43;;;;;;;6.63;1.52;;;13.40;56.70;;;;;;5048368;28;20025;-73
2022/04/07 07:09:10;;;;;;;5.45;1.63;;;13.50;56.90;;;;;;5042561;28;20032;-76
2022/04/07 07:11:35;;;;;;;5.57;1.67;;;13.60;57.30;;;;;;5044394;28;20144;-76
2022/04/07 07:14:01;;;;;;;10.25;2.50;;;13.70;57.50;;;;;;5020661;28;20033;-75
2022/04/07 07:16:27;;;;;;;5.10;1.70;;;13.70;57.50;;;;;;5041737;28;20388;-75
2022/04/07 07:18:53;;;;;;;10.93;2.72;;;13.70;57.50;;;;;;5044677;28;20063;-75
2022/04/07 07:21:19;;;;;;;8.93;2.70;;;13.70;57.40;;;;;;5043924;28;20063;-76
2022/04/07 07:23:45;;;;;;;11.35;2.63;;;13.70;57.40;;;;;;5039304;28;20220;-73
2022/04/07 07:26:12;;;;;;;10.30;2.00;;;13.70;57.30;;;;;;5043965;28;20036;-76
2022/04/07 07:28:38;;;;;;;8.20;2.20;;;13.80;57.30;;;;;;5022455;28;20029;-73
2022/04/07 07:31:05;;;;;;;9.32;2.25;;;13.80;57.30;;;;;;5043225;28;20458;-73
2022/04/07 07:33:31;;;;;;;7.63;2.55;;;13.80;57.20;;;;;;5034473;28;20029;-74
2022/04/07 07:35:57;;;;;;;12.20;2.13;;;13.90;57.30;;;;;;5044265;28;20134;-74
2022/04/07 07:38:23;;;;;;;9.88;2.25;;;14.00;57.30;;;;;;5041722;28;20044;-74
2022/04/07 07:40:49;;;;;;;8.27;2.25;;;14.10;57.10;;;;;;5036452;28;20037;-74
2022/04/07 07:43:14;;;;;;;7.75;2.50;;;14.20;56.90;;;;;;5045245;28;20624;-75
2022/04/07 07:45:40;;;;;;;11.45;2.33;;;14.30;56.70;;;;;;5042714;28;20040;-77
2022/04/07 07:48:06;;;;;;;9.02;2.25;;;14.30;56.50;;;;;;5039939;28;20033;-73
2022/04/07 07:50:32;;;;;;;11.90;3.50;;;14.40;56.40;;;;;;5044162;28;20067;-76
2022/04/07 07:52:58;;;;;;;7.57;2.45;;;14.40;56.10;;;;;;5030213;28;20064;-76
2022/04/07 07:55:24;;;;;;;7.95;2.10;;;14.40;56.10;;;;;;5043556;28;20496;-76
2022/04/07 07:57:50;;;;;;;10.23;3.05;;;14.50;56.10;;;;;;5040609;28;20044;-76
2022/04/07 08:00:17;;;;;;;10.57;2.08;;;14.50;56.00;;;;;;5051432;28;20028;-76
2022/04/07 08:02:43;;;;;;;5.93;1.80;;;14.60;56.50;;;;;;5041102;28;20064;-76
2022/04/07 08:05:10;;;;;;;11.13;3.55;;;14.60;55.90;;;;;;5050775;28;20044;-76
2022/04/07 08:07:42;;;;;;;8.98;2.15;;;14.60;55.80;;;;;;5042882;28;20116;-76
2022/04/07 08:10:11;;;;;;;11.32;3.03;;;14.70;55.60;;;;;;5048093;28;20032;-76
2022/04/07 08:12:38;;;;;;;8.38;2.50;;;14.80;55.60;;;;;;5024430;28;20683;-77
2022/04/07 08:15:05;;;;;;;6.53;2.17;;;14.80;55.40;;;;;;5022271;28;20029;-75
2022/04/07 08:17:31;;;;;;;8.25;1.90;;;14.90;55.50;;;;;;5041437;28;20029;-76
2022/04/07 08:19:57;;;;;;;8.10;2.00;;;15.00;55.40;;;;;;5024623;28;20095;-74
2022/04/07 08:22:23;;;;;;;12.43;3.20;;;15.00;55.20;;;;;;5046384;28;20025;-75
2022/04/07 08:24:49;;;;;;;5.55;2.08;;;15.10;55.30;;;;;;5040682;28;20071;-76
2022/04/07 08:27:15;;;;;;;12.75;2.97;;;15.20;55.20;;;;;;5043688;28;20057;-72
2022/04/07 08:29:41;;;;;;;5.55;1.60;;;15.20;55.10;;;;;;5041886;28;20053;-74
2022/04/07 08:32:07;;;;;;;9.45;2.47;;;15.30;55.10;;;;;;5040957;28;20119;-76
2022/04/07 08:34:33;;;;;;;4.97;1.95;;;15.40;55.10;;;;;;5024630;28;20375;-74
2022/04/07 08:36:59;;;;;;;9.77;2.13;;;15.40;54.90;;;;;;5041904;28;20033;-76
2022/04/07 08:39:24;;;;;;;8.90;2.28;;;15.50;55.00;;;;;;5039449;28;20048;-76
2022/04/07 08:41:53;;;;;;;11.45;2.63;;;15.50;54.70;;;;;;5044324;28;20036;-74
2022/04/07 08:44:19;;;;;;;7.00;2.03;;;15.60;54.70;;;;;;5047804;28;20103;-76
2022/04/07 08:46:53;;;;;;;8.23;1.88;;;15.60;54.50;;;;;;5041525;28;20430;-76
2022/04/07 08:49:23;;;;;;;6.88;1.40;;;15.70;54.50;;;;;;5039317;28;20029;-76
2022/04/07 08:51:52;;;;;;;7.07;2.70;;;15.70;54.20;;;;;;5042118;28;20036;-75
2022/04/07 08:54:19;;;;;;;8.55;2.70;;;15.80;54.30;;;;;;5008200;28;20066;-76
2022/04/07 08:56:45;;;;;;;7.78;2.30;;;15.90;54.30;;;;;;5042099;28;20481;-76
2022/04/07 08:59:12;;;;;;;7.32;2.28;;;15.90;54.20;;;;;;5035784;28;20041;-74
2022/04/07 09:01:37;;;;;;;11.30;2.28;;;16.00;54.10;;;;;;5037759;28;20469;-74
2022/04/07 09:04:04;;;;;;;7.35;1.98;;;16.10;54.10;;;;;;5025106;28;20044;-74
2022/04/07 09:06:34;;;;;;;8.98;2.78;;;16.20;54.10;;;;;;5030101;28;20186;-76
2022/04/07 09:09:18;;;;;;;11.38;3.35;;;16.30;53.90;;;;;;5043220;28;20044;-76
2022/04/07 09:11:44;;;;;;;6.85;2.50;;;16.40;53.70;;;;;;5038684;28;20037;-76
2022/04/07 09:14:11;;;;;;;7.82;2.13;;;16.50;53.80;;;;;;5044431;28;20037;-73
2022/04/07 09:16:38;;;;;;;4.75;1.70;;;16.50;53.50;;;;;;5046033;28;20029;-73
2022/04/07 09:19:05;;;;;;;4.18;1.67;;;16.60;53.40;;;;;;5044360;28;20106;-76
2022/04/07 09:21:31;;;;;;;8.30;2.72;;;16.70;53.40;;;;;;5046109;28;20493;-74
2022/04/07 09:24:00;;;;;;;4.38;1.50;;;16.70;53.30;;;;;;5040813;28;20039;-74
2022/04/07 09:26:28;;;;;;;6.22;1.63;;;16.70;53.10;;;;;;5041479;28;20071;-74
2022/04/07 09:28:56;;;;;;;3.95;1.35;;;16.70;53.00;;;;;;5033949;28;20139;-74
2022/04/07 09:31:25;;;;;;;7.90;1.77;;;16.70;52.90;;;;;;5052400;28;20038;-74
2022/04/07 09:33:55;;;;;;;9.02;2.88;;;16.70;52.80;;;;;;5048212;28;20043;-74
2022/04/07 09:36:23;;;;;;;7.38;2.00;;;16.70;52.70;;;;;;5054368;28;20079;-74
2022/04/07 09:38:55;;;;;;;9.85;2.22;;;16.70;52.60;;;;;;5044552;28;20429;-74
2022/04/07 09:41:23;;;;;;;7.07;2.05;;;16.80;52.60;;;;;;5050304;28;20430;-75
2022/04/07 09:43:50;;;;;;;11.20;2.65;;;16.90;52.70;;;;;;5044553;28;20041;-74
2022/04/07 09:46:18;;;;;;;7.07;2.17;;;16.80;52.40;;;;;;5044235;28;20060;-74
2022/04/07 09:49:11;;;;;;;6.13;1.65;;;16.90;52.50;;;;;;5025785;28;20025;-73
2022/04/07 09:51:48;;;;;;;4.70;1.52;;;16.80;52.10;;;;;;5045152;28;20037;-73
2022/04/07 09:54:18;;;;;;;6.88;2.30;;;16.80;52.20;;;;;;5043561;28;20032;-73
2022/04/07 09:56:46;;;;;;;6.78;2.47;;;16.80;52.20;;;;;;5049753;28;20033;-74
2022/04/07 09:59:16;;;;;;;7.93;1.85;;;16.90;52.20;;;;;;5053703;28;20420;-74
2022/04/07 10:01:43;;;;;;;7.50;2.03;;;16.90;52.00;;;;;;5034965;28;20116;-75
2022/04/07 10:04:10;;;;;;;6.22;2.03;;;16.90;52.00;;;;;;5043697;28;20682;-72
2022/04/07 10:06:38;;;;;;;7.05;1.98;;;16.90;51.90;;;;;;5053833;28;20037;-73
2022/04/07 10:09:07;;;;;;;6.30;1.55;;;16.90;51.90;;;;;;5043224;28;20044;-73
2022/04/07 10:11:33;;;;;;;4.57;1.50;;;16.90;51.70;;;;;;5044882;28;20114;-73
2022/04/07 10:14:00;;;;;;;7.05;2.05;;;16.90;51.60;;;;;;5041706;28;20025;-72
2022/04/07 10:16:27;;;;;;;11.55;3.13;;;17.00;51.60;;;;;;5042521;28;20467;-72
2022/04/07 10:19:12;;;;;;;10.07;2.05;;;17.00;51.40;;;;;;5046434;28;20376;-74
2022/04/07 10:22:05;;;;;;;6.65;2.13;;;17.00;51.10;;;;;;5036978;28;20518;-74
2022/04/07 10:24:37;;;;;;;7.95;2.22;;;17.10;51.20;;;;;;5046681;28;20082;-73
2022/04/07 10:27:09;;;;;;;9.32;1.98;;;17.10;51.20;;;;;;5044230;28;20090;-75
2022/04/07 10:29:37;;;;;;;6.20;2.05;;;17.10;51.20;;;;;;5032488;28;20267;-75
2022/04/07 10:32:12;;;;;;;9.40;2.25;;;17.10;51.30;;;;;;5042881;28;20480;-75
2022/04/07 10:34:42;;;;;;;5.90;1.50;;;17.00;50.80;;;;;;5040055;28;20099;-74
2022/04/07 10:37:09;;;;;;;7.85;2.42;;;17.00;50.80;;;;;;5047950;28;20511;-75
2022/04/07 10:39:39;;;;;;;5.95;1.85;;;17.00;50.70;;;;;;5045951;28;20057;-75
2022/04/07 10:42:05;;;;;;;8.80;2.00;;;16.90;50.50;;;;;;5043853;28;20031;-73
2022/04/07 10:44:33;;;;;;;7.57;2.75;;;16.90;50.40;;;;;;5052373;28;20063;-74
2022/04/07 10:47:09;;;;;;;6.20;1.90;;;16.90;50.20;;;;;;5032344;28;20087;-74
2022/04/07 10:49:35;;;;;;;13.00;2.75;;;16.90;50.10;;;;;;5025572;28;20362;-75
2022/04/07 10:52:04;;;;;;;6.18;1.35;;;16.90;50.10;;;;;;5044749;28;20566;-75
2022/04/07 10:54:30;;;;;;;9.20;1.90;;;16.90;49.80;;;;;;5035741;28;20492;-75
2022/04/07 10:56:59;;;;;;;6.38;1.42;;;16.90;49.80;;;;;;5037496;28;20093;-75
2022/04/07 10:59:34;;;;;;;5.88;2.65;;;16.90;49.70;;;;;;5042907;28;20039;-74
2022/04/07 11:02:10;;;;;;;6.22;1.80;;;16.90;49.60;;;;;;5023526;28;20036;-74
2022/04/07 11:04:54;;;;;;;8.93;1.88;;;16.90;49.50;;;;;;5039072;28;20381;-73
2022/04/07 11:07:22;;;;;;;6.78;1.52;;;16.90;49.20;;;;;;5041170;28;20438;-73
2022/04/07 11:10:00;;;;;;;8.02;2.75;;;16.90;49.40;;;;;;5049732;28;20036;-73
2022/04/07 11:12:28;;;;;;;12.48;3.17;;;16.90;49.40;;;;;;5039704;28;20058;-74
2022/04/07 11:15:04;;;;;;;9.20;2.92;;;16.90;49.30;;;;;;5024155;28;20044;-74
2022/04/07 11:17:41;;;;;;;9.40;2.80;;;16.90;49.20;;;;;;5041157;28;20032;-74
2022/04/07 11:20:15;;;;;;;12.48;2.33;;;16.90;49.20;;;;;;5052818;28;20056;-74
2022/04/07 11:23:13;;;;;;;10.40;2.03;;;16.90;49.20;;;;;;5042376;28;20588;-75
2022/04/07 11:25:46;;;;;;;6.88;2.05;;;16.90;48.90;;;;;;5038843;28;20036;-77
2022/04/07 11:28:17;;;;;;;;;;;16.90;49.10;;;;;;5039622;28;20034;-75
2022/04/07 11:30:51;;;;;;;8.43;2.40;;;16.90;49.10;;;;;;5043554;28;20077;-75
2022/04/07 11:33:20;;;;;;;9.20;2.47;;;16.90;49.20;;;;;;5042259;28;20043;-74
2022/04/07 11:36:00;;;;;;;15.00;5.00;;;17.00;49.20;;;;;;5042786;28;20025;-75
2022/04/07 11:38:31;;;;;;;8.85;2.20;;;17.00;49.00;;;;;;5036600;28;20029;-75
2022/04/07 11:41:01;;;;;;;15.13;3.53;;;17.10;49.10;;;;;;5042818;28;20025;-75
2022/04/07 11:43:27;;;;;;;11.48;3.83;;;17.10;49.00;;;;;;5042351;28;20025;-75
2022/04/07 11:45:54;;;;;;;11.80;2.88;;;17.10;48.90;;;;;;5047864;28;20586;-74
2022/04/07 11:48:21;;;;;;;10.70;2.50;;;17.20;48.90;;;;;;5040157;28;20079;-74
2022/04/07 11:50:47;;;;;;;8.13;2.42;;;17.30;48.90;;;;;;5043368;28;20044;-76
2022/04/07 11:53:13;;;;;;;11.35;2.80;;;17.40;49.00;;;;;;5042717;28;20040;-75
2022/04/07 11:55:38;;;;;;;12.68;3.13;;;17.60;49.10;;;;;;5042786;28;20037;-75
2022/04/07 11:58:04;;;;;;;11.20;3.08;;;17.70;48.80;;;;;;5024755;28;20120;-75
2022/04/07 12:00:31;;;;;;;14.73;2.83;;;17.90;48.90;;;;;;5043524;28;20429;-75
2022/04/07 12:03:02;;;;;;;9.50;3.05;;;17.90;48.50;;;;;;5020643;28;20496;-75
2022/04/07 12:05:31;;;;;;;8.00;2.05;;;18.00;48.50;;;;;;5042903;28;20515;-75
2022/04/07 12:08:11;;;;;;;9.85;2.78;;;18.20;48.60;;;;;;5039167;28;20049;-73
2022/04/07 12:10:44;;;;;;;10.45;2.67;;;18.20;48.30;;;;;;5049123;28;20029;-74
2022/04/07 12:13:11;;;;;;;8.00;2.53;;;18.40;48.60;;;;;;5030785;28;20120;-75
2022/04/07 12:15:38;;;;;;;7.82;2.20;;;18.40;48.40;;;;;;5039830;28;20033;-74
2022/04/07 12:18:08;;;;;;;7.88;2.30;;;18.60;48.40;;;;;;5043074;28;20034;-75
2022/04/07 12:20:35;;;;;;;11.07;2.80;;;18.60;48.10;;;;;;5043399;28;20040;-75
2022/04/07 12:23:05;;;;;;;7.60;2.40;;;18.60;48.00;;;;;;5042191;28;20488;-74
2022/04/07 12:25:31;;;;;;;9.13;3.88;;;18.70;48.30;;;;;;5022476;28;20048;-75
2022/04/07 12:28:17;;;;;;;9.05;2.92;;;18.60;48.10;;;;;;5031228;28;20844;-75
2022/04/07 12:30:52;;;;;;;11.05;2.95;;;18.80;48.30;;;;;;5041919;28;20029;-75
2022/04/07 12:33:42;;;;;;;7.57;2.53;;;18.90;48.40;;;;;;5050344;28;20036;-75
2022/04/07 12:36:16;;;;;;;11.70;2.95;;;18.90;48.10;;;;;;5040804;28;20032;-74
2022/04/07 12:39:00;;;;;;;9.68;2.80;;;19.00;48.30;;;;;;5041225;28;20506;-75
2022/04/07 12:41:48;;;;;;;11.95;3.50;;;19.00;48.00;;;;;;5031217;28;20059;-74
2022/04/07 12:44:22;;;;;;;14.00;3.00;;;19.10;48.10;;;;;;5040296;28;20100;-75
2022/04/07 12:47:01;;;;;;;9.30;3.08;;;19.20;48.30;;;;;;5035712;28;20788;-75